sensor_id;sensor_type;location;lat;lon;timestamp;pressure;altitude;pressure_sealevel;temperature;humidity
36598;BME280;22607;49.550;11.940;2023-04-01T00:01:03;95375.69;;;8.18;100.00
36598;BME280;22607;49.550;11.940;2023-04-01T00:03:30;95375.91;;;8.23;100.00
36598;BME280;22607;49.550;11.940;2023-04-01T00:06:00;95371.91;;;8.27;100.00
36598;BME280;22607;49.550;11.940;2023-04-01T00:08:27;95373.63;;;8.49;100.00
36598;BME280;22607;49.550;11.940;2023-04-01T00:10:54;95364.56;;;8.51;100.00
36598;BME280;22607;49.550;11.940;2023-04-01T00:13:26;95366.09;;;8.32;100.00
36598;BME280;22607;49.550;11.940;2023-04-01T00:15:54;95366.34;;;8.44;100.00
36598;BME280;22607;49.550;11.940;2023-04-01T00:18:25;95373.88;;;8.54;100.00
36598;BME280;22607;49.550;11.940;2023-04-01T00:20:52;95365.94;;;8.40;100.00
36598;BME280;22607;49.550;11.940;2023-04-01T00:23:20;95358.94;;;8.48;100.00
36598;BME280;22607;49.550;11.940;2023-04-01T00:25:47;95356.06;;;8.43;100.00
36598;BME280;22607;49.550;11.940;2023-04-01T00:28:19;95359.66;;;8.35;100.00
36598;BME280;22607;49.550;11.940;2023-04-01T00:30:46;95360.91;;;8.46;100.00
36598;BME280;22607;49.550;11.940;2023-04-01T00:33:13;95361.50;;;8.41;100.00
36598;BME280;22607;49.550;11.940;2023-04-01T00:35:40;95359.78;;;8.55;100.00
36598;BME280;22607;49.550;11.940;2023-04-01T00:38:07;95359.09;;;8.39;100.00
36598;BME280;22607;49.550;11.940;2023-04-01T00:40:39;95360.50;;;8.42;100.00
36598;BME280;22607;49.550;11.940;2023-04-01T00:43:17;95357.28;;;8.47;100.00
36598;BME280;22607;49.550;11.940;2023-04-01T00:45:47;95364.41;;;8.53;100.00
36598;BME280;22607;49.550;11.940;2023-04-01T00:48:21;95362.25;;;8.28;100.00
36598;BME280;22607;49.550;11.940;2023-04-01T00:50:54;95364.50;;;8.38;100.00
36598;BME280;22607;49.550;11.940;2023-04-01T00:53:22;95355.16;;;8.57;100.00
36598;BME280;22607;49.550;11.940;2023-04-01T00:56:06;95363.84;;;8.71;100.00
36598;BME280;22607;49.550;11.940;2023-04-01T00:58:39;95357.50;;;8.45;100.00
36598;BME280;22607;49.550;11.940;2023-04-01T01:01:08;95351.88;;;8.48;100.00
36598;BME280;22607;49.550;11.940;2023-04-01T01:03:35;95351.31;;;8.53;100.00
36598;BME280;22607;49.550;11.940;2023-04-01T01:09:00;95347.78;;;8.74;100.00
36598;BME280;22607;49.550;11.940;2023-04-01T01:11:37;95353.19;;;8.66;100.00
36598;BME280;22607;49.550;11.940;2023-04-01T01:16:48;95362.22;;;8.63;100.00
36598;BME280;22607;49.550;11.940;2023-04-01T01:25:11;95357.72;;;8.50;100.00
36598;BME280;22607;49.550;11.940;2023-04-01T01:27:51;95356.56;;;8.53;100.00
36598;BME280;22607;49.550;11.940;2023-04-01T01:30:28;95356.72;;;8.51;100.00
36598;BME280;22607;49.550;11.940;2023-04-01T01:33:16;95356.16;;;8.56;100.00
36598;BME280;22607;49.550;11.940;2023-04-01T01:35:52;95360.69;;;8.40;100.00
36598;BME280;22607;49.550;11.940;2023-04-01T01:38:29;95358.09;;;8.47;100.00
36598;BME280;22607;49.550;11.940;2023-04-01T01:40:58;95352.75;;;8.56;100.00
36598;BME280;22607;49.550;11.940;2023-04-01T01:43:30;95348.22;;;8.43;100.00
36598;BME280;22607;49.550;11.940;2023-04-01T01:46:00;95359.47;;;8.36;100.00
36598;BME280;22607;49.550;11.940;2023-04-01T01:48:29;95348.53;;;8.55;100.00
36598;BME280;22607;49.550;11.940;2023-04-01T01:50:56;95344.47;;;8.59;100.00
36598;BME280;22607;49.550;11.940;2023-04-01T01:53:23;95358.09;;;8.40;100.00
36598;BME280;22607;49.550;11.940;2023-04-01T01:55:50;95349.66;;;8.45;100.00
36598;BME280;22607;49.550;11.940;2023-04-01T02:00:53;95354.47;;;8.41;100.00
36598;BME280;22607;49.550;11.940;2023-04-01T02:03:23;95357.34;;;8.53;100.00
36598;BME280;22607;49.550;11.940;2023-04-01T02:05:52;95357.00;;;8.28;100.00
36598;BME280;22607;49.550;11.940;2023-04-01T02:08:24;95364.38;;;8.11;100.00
36598;BME280;22607;49.550;11.940;2023-04-01T02:11:00;95362.47;;;8.33;100.00
36598;BME280;22607;49.550;11.940;2023-04-01T02:13:39;95356.63;;;8.31;100.00
36598;BME280;22607;49.550;11.940;2023-04-01T02:16:12;95345.63;;;8.49;100.00
36598;BME280;22607;49.550;11.940;2023-04-01T02:18:41;95363.63;;;8.24;100.00
36598;BME280;22607;49.550;11.940;2023-04-01T02:21:10;95368.50;;;7.92;100.00
36598;BME280;22607;49.550;11.940;2023-04-01T02:23:37;95361.63;;;8.26;100.00
36598;BME280;22607;49.550;11.940;2023-04-01T02:26:06;95363.13;;;8.07;100.00
36598;BME280;22607;49.550;11.940;2023-04-01T02:28:36;95359.56;;;8.14;100.00
36598;BME280;22607;49.550;11.940;2023-04-01T02:31:05;95361.16;;;8.09;100.00
36598;BME280;22607;49.550;11.940;2023-04-01T02:33:32;95364.31;;;8.04;100.00
36598;BME280;22607;49.550;11.940;2023-04-01T02:35:59;95358.53;;;8.09;100.00
36598;BME280;22607;49.550;11.940;2023-04-01T02:38:26;95355.09;;;8.08;100.00
36598;BME280;22607;49.550;11.940;2023-04-01T02:40:58;95365.41;;;8.17;100.00
36598;BME280;22607;49.550;11.940;2023-04-01T02:43:25;95364.03;;;8.21;100.00
36598;BME280;22607;49.550;11.940;2023-04-01T02:45:52;95352.00;;;7.91;100.00
36598;BME280;22607;49.550;11.940;2023-04-01T02:48:18;95352.41;;;7.95;100.00
36598;BME280;22607;49.550;11.940;2023-04-01T02:50:45;95351.09;;;8.12;100.00
36598;BME280;22607;49.550;11.940;2023-04-01T02:53:11;95355.44;;;7.92;100.00
36598;BME280;22607;49.550;11.940;2023-04-01T02:55:38;95358.34;;;8.10;100.00
36598;BME280;22607;49.550;11.940;2023-04-01T02:58:04;95357.94;;;7.78;100.00
36598;BME280;22607;49.550;11.940;2023-04-01T03:00:31;95367.44;;;7.86;100.00
36598;BME280;22607;49.550;11.940;2023-04-01T03:02:58;95364.25;;;7.91;100.00
36598;BME280;22607;49.550;11.940;2023-04-01T03:05:25;95363.19;;;7.78;100.00
36598;BME280;22607;49.550;11.940;2023-04-01T03:07:51;95367.91;;;7.96;100.00
36598;BME280;22607;49.550;11.940;2023-04-01T03:10:18;95370.16;;;7.71;100.00
36598;BME280;22607;49.550;11.940;2023-04-01T03:12:44;95369.25;;;7.85;100.00
36598;BME280;22607;49.550;11.940;2023-04-01T03:15:12;95364.25;;;7.91;100.00
36598;BME280;22607;49.550;11.940;2023-04-01T03:17:41;95376.75;;;7.95;100.00
36598;BME280;22607;49.550;11.940;2023-04-01T03:20:09;95368.91;;;7.95;100.00
36598;BME280;22607;49.550;11.940;2023-04-01T03:22:37;95371.28;;;7.90;100.00
36598;BME280;22607;49.550;11.940;2023-04-01T03:25:07;95373.31;;;7.95;100.00
36598;BME280;22607;49.550;11.940;2023-04-01T03:27:34;95376.84;;;8.09;100.00
36598;BME280;22607;49.550;11.940;2023-04-01T03:30:05;95383.31;;;8.13;100.00
36598;BME280;22607;49.550;11.940;2023-04-01T03:32:32;95377.31;;;7.91;100.00
36598;BME280;22607;49.550;11.940;2023-04-01T03:34:59;95381.63;;;8.05;100.00
36598;BME280;22607;49.550;11.940;2023-04-01T03:37:25;95375.19;;;8.01;100.00
36598;BME280;22607;49.550;11.940;2023-04-01T03:39:52;95382.44;;;8.06;100.00
36598;BME280;22607;49.550;11.940;2023-04-01T03:42:19;95387.25;;;8.02;100.00
36598;BME280;22607;49.550;11.940;2023-04-01T03:44:45;95385.88;;;8.06;100.00
36598;BME280;22607;49.550;11.940;2023-04-01T03:47:11;95385.69;;;8.08;100.00
36598;BME280;22607;49.550;11.940;2023-04-01T03:49:38;95384.53;;;8.17;100.00
36598;BME280;22607;49.550;11.940;2023-04-01T03:52:08;95380.41;;;8.01;100.00
36598;BME280;22607;49.550;11.940;2023-04-01T03:54:35;95385.19;;;7.97;100.00
36598;BME280;22607;49.550;11.940;2023-04-01T03:57:02;95385.56;;;7.87;100.00
36598;BME280;22607;49.550;11.940;2023-04-01T03:59:28;95387.22;;;7.95;100.00
36598;BME280;22607;49.550;11.940;2023-04-01T04:01:55;95382.72;;;7.89;100.00
36598;BME280;22607;49.550;11.940;2023-04-01T04:04:21;95382.47;;;8.12;100.00
36598;BME280;22607;49.550;11.940;2023-04-01T04:06:48;95379.31;;;8.17;100.00
36598;BME280;22607;49.550;11.940;2023-04-01T04:09:14;95386.41;;;7.95;100.00
36598;BME280;22607;49.550;11.940;2023-04-01T04:11:41;95387.50;;;8.07;100.00
36598;BME280;22607;49.550;11.940;2023-04-01T04:14:07;95391.38;;;7.90;100.00
36598;BME280;22607;49.550;11.940;2023-04-01T04:16:37;95385.50;;;8.16;100.00
36598;BME280;22607;49.550;11.940;2023-04-01T04:19:04;95390.56;;;8.18;100.00
36598;BME280;22607;49.550;11.940;2023-04-01T04:21:30;95400.97;;;8.11;100.00
36598;BME280;22607;49.550;11.940;2023-04-01T04:24:01;95397.81;;;8.16;100.00
36598;BME280;22607;49.550;11.940;2023-04-01T04:26:28;95401.56;;;8.06;100.00
36598;BME280;22607;49.550;11.940;2023-04-01T04:28:54;95397.31;;;8.05;100.00
36598;BME280;22607;49.550;11.940;2023-04-01T04:31:22;95400.25;;;8.24;100.00
36598;BME280;22607;49.550;11.940;2023-04-01T04:33:49;95395.38;;;8.14;100.00
36598;BME280;22607;49.550;11.940;2023-04-01T04:36:17;95406.47;;;8.23;100.00
36598;BME280;22607;49.550;11.940;2023-04-01T04:38:43;95406.47;;;8.23;100.00
36598;BME280;22607;49.550;11.940;2023-04-01T04:41:14;95402.47;;;8.27;100.00
36598;BME280;22607;49.550;11.940;2023-04-01T04:43:41;95407.34;;;8.30;100.00
36598;BME280;22607;49.550;11.940;2023-04-01T04:46:09;95397.47;;;8.32;100.00
36598;BME280;22607;49.550;11.940;2023-04-01T04:48:36;95404.00;;;8.14;100.00
36598;BME280;22607;49.550;11.940;2023-04-01T04:51:04;95409.88;;;8.17;100.00
36598;BME280;22607;49.550;11.940;2023-04-01T04:53:31;95405.84;;;8.14;100.00
36598;BME280;22607;49.550;11.940;2023-04-01T04:55:57;95417.03;;;8.01;100.00
36598;BME280;22607;49.550;11.940;2023-04-01T04:58:24;95412.56;;;8.30;100.00
36598;BME280;22607;49.550;11.940;2023-04-01T05:00:50;95416.41;;;8.34;100.00
36598;BME280;22607;49.550;11.940;2023-04-01T05:03:16;95406.09;;;8.26;100.00
36598;BME280;22607;49.550;11.940;2023-04-01T05:05:52;95411.34;;;8.26;100.00
36598;BME280;22607;49.550;11.940;2023-04-01T05:08:19;95414.19;;;8.31;100.00
36598;BME280;22607;49.550;11.940;2023-04-01T05:10:46;95412.16;;;8.26;100.00
36598;BME280;22607;49.550;11.940;2023-04-01T05:13:13;95412.78;;;8.35;100.00
36598;BME280;22607;49.550;11.940;2023-04-01T05:15:39;95404.78;;;8.44;100.00
36598;BME280;22607;49.550;11.940;2023-04-01T05:18:06;95412.94;;;8.27;100.00
36598;BME280;22607;49.550;11.940;2023-04-01T05:20:33;95410.91;;;8.22;100.00
36598;BME280;22607;49.550;11.940;2023-04-01T05:22:59;95418.81;;;8.29;100.00
36598;BME280;22607;49.550;11.940;2023-04-01T05:25:26;95414.00;;;8.33;100.00
36598;BME280;22607;49.550;11.940;2023-04-01T05:27:53;95412.91;;;8.20;100.00
36598;BME280;22607;49.550;11.940;2023-04-01T05:30:22;95420.47;;;8.37;100.00
36598;BME280;22607;49.550;11.940;2023-04-01T05:32:48;95415.25;;;8.44;100.00
36598;BME280;22607;49.550;11.940;2023-04-01T05:35:15;95420.03;;;8.40;100.00
36598;BME280;22607;49.550;11.940;2023-04-01T05:37:42;95414.78;;;8.26;100.00
36598;BME280;22607;49.550;11.940;2023-04-01T05:40:09;95414.81;;;8.40;100.00
36598;BME280;22607;49.550;11.940;2023-04-01T05:42:35;95411.56;;;8.31;100.00
36598;BME280;22607;49.550;11.940;2023-04-01T05:45:04;95415.25;;;8.44;100.00
36598;BME280;22607;49.550;11.940;2023-04-01T05:47:31;95416.78;;;8.31;100.00
36598;BME280;22607;49.550;11.940;2023-04-01T05:49:57;95410.78;;;8.37;100.00
36598;BME280;22607;49.550;11.940;2023-04-01T05:52:23;95414.56;;;8.28;100.00
36598;BME280;22607;49.550;11.940;2023-04-01T05:54:50;95422.56;;;8.20;100.00
36598;BME280;22607;49.550;11.940;2023-04-01T05:57:17;95423.44;;;8.34;100.00
36598;BME280;22607;49.550;11.940;2023-04-01T05:59:43;95423.72;;;8.46;100.00
36598;BME280;22607;49.550;11.940;2023-04-01T06:02:10;95427.41;;;8.23;100.00
36598;BME280;22607;49.550;11.940;2023-04-01T06:04:39;95423.78;;;8.24;100.00
36598;BME280;22607;49.550;11.940;2023-04-01T06:07:13;95424.03;;;8.29;100.00
36598;BME280;22607;49.550;11.940;2023-04-01T06:09:41;95433.09;;;8.33;100.00
36598;BME280;22607;49.550;11.940;2023-04-01T06:20:00;95438.03;;;8.50;100.00
36598;BME280;22607;49.550;11.940;2023-04-01T06:22:42;95443.50;;;8.55;100.00
36598;BME280;22607;49.550;11.940;2023-04-01T06:30:47;95431.00;;;8.50;100.00
36598;BME280;22607;49.550;11.940;2023-04-01T06:39:06;95440.22;;;8.46;100.00
36598;BME280;22607;49.550;11.940;2023-04-01T06:42:18;95440.41;;;8.73;100.00
36598;BME280;22607;49.550;11.940;2023-04-01T06:50:47;95440.97;;;8.69;100.00
36598;BME280;22607;49.550;11.940;2023-04-01T06:53:36;95450.09;;;8.86;100.00
36598;BME280;22607;49.550;11.940;2023-04-01T06:56:09;95445.25;;;8.83;100.00
36598;BME280;22607;49.550;11.940;2023-04-01T06:58:44;95446.09;;;8.90;100.00
36598;BME280;22607;49.550;11.940;2023-04-01T07:01:18;95439.22;;;8.83;100.00
36598;BME280;22607;49.550;11.940;2023-04-01T07:03:54;95433.97;;;8.89;100.00
36598;BME280;22607;49.550;11.940;2023-04-01T07:06:32;95439.97;;;8.76;100.00
36598;BME280;22607;49.550;11.940;2023-04-01T07:09:05;95436.84;;;8.95;100.00
36598;BME280;22607;49.550;11.940;2023-04-01T07:11:37;95432.03;;;8.98;100.00
36598;BME280;22607;49.550;11.940;2023-04-01T07:14:13;95432.44;;;9.09;100.00
36598;BME280;22607;49.550;11.940;2023-04-01T07:16:47;95439.09;;;9.11;100.00
36598;BME280;22607;49.550;11.940;2023-04-01T07:19:24;95442.16;;;9.22;100.00
36598;BME280;22607;49.550;11.940;2023-04-01T07:21:56;95439.28;;;9.03;100.00
36598;BME280;22607;49.550;11.940;2023-04-01T07:24:32;95447.78;;;9.12;100.00
36598;BME280;22607;49.550;11.940;2023-04-01T07:27:00;95448.44;;;9.34;100.00
36598;BME280;22607;49.550;11.940;2023-04-01T07:29:27;95446.41;;;9.43;100.00
36598;BME280;22607;49.550;11.940;2023-04-01T07:37:35;95447.06;;;9.58;100.00
36598;BME280;22607;49.550;11.940;2023-04-01T07:40:26;95447.47;;;9.62;100.00
36598;BME280;22607;49.550;11.940;2023-04-01T07:45:30;95448.06;;;10.05;100.00
36598;BME280;22607;49.550;11.940;2023-04-01T07:48:42;95446.06;;;9.80;100.00
36598;BME280;22607;49.550;11.940;2023-04-01T07:51:27;95442.22;;;10.16;100.00
36598;BME280;22607;49.550;11.940;2023-04-01T07:54:07;95442.84;;;10.05;100.00
36598;BME280;22607;49.550;11.940;2023-04-01T07:56:44;95451.06;;;10.35;100.00
36598;BME280;22607;49.550;11.940;2023-04-01T08:04:41;95444.41;;;10.33;99.67
36598;BME280;22607;49.550;11.940;2023-04-01T08:07:25;95444.25;;;10.01;99.93
36598;BME280;22607;49.550;11.940;2023-04-01T08:10:16;95450.31;;;10.08;97.76
36598;BME280;22607;49.550;11.940;2023-04-01T08:20:51;95448.69;;;9.93;98.61
36598;BME280;22607;49.550;11.940;2023-04-01T08:23:23;95452.72;;;9.96;100.00
36598;BME280;22607;49.550;11.940;2023-04-01T08:25:56;95451.50;;;10.12;99.35
36598;BME280;22607;49.550;11.940;2023-04-01T08:28:32;95451.91;;;10.02;100.00
36598;BME280;22607;49.550;11.940;2023-04-01T08:31:05;95449.50;;;10.01;98.86
36598;BME280;22607;49.550;11.940;2023-04-01T08:33:36;95453.53;;;9.63;100.00
36598;BME280;22607;49.550;11.940;2023-04-01T08:36:13;95451.50;;;9.78;100.00
36598;BME280;22607;49.550;11.940;2023-04-01T08:38:49;95452.34;;;9.85;100.00
36598;BME280;22607;49.550;11.940;2023-04-01T08:41:40;95447.09;;;9.85;100.00
36598;BME280;22607;49.550;11.940;2023-04-01T08:44:20;95437.81;;;9.83;100.00
36598;BME280;22607;49.550;11.940;2023-04-01T08:54:57;95435.38;;;10.02;100.00
36598;BME280;22607;49.550;11.940;2023-04-01T09:00:29;95439.63;;;10.09;97.73
36598;BME280;22607;49.550;11.940;2023-04-01T09:03:15;95447.47;;;10.03;97.43
36598;BME280;22607;49.550;11.940;2023-04-01T09:06:12;95435.78;;;9.78;100.00
36598;BME280;22607;49.550;11.940;2023-04-01T09:22:37;95445.47;;;9.98;96.13
36598;BME280;22607;49.550;11.940;2023-04-01T09:28:27;95450.31;;;10.08;96.63
36598;BME280;22607;49.550;11.940;2023-04-01T09:36:47;95451.50;;;10.26;95.39
36598;BME280;22607;49.550;11.940;2023-04-01T09:39:38;95449.25;;;10.36;92.14
36598;BME280;22607;49.550;11.940;2023-04-01T09:44:58;95450.28;;;10.48;92.92
36598;BME280;22607;49.550;11.940;2023-04-01T10:18:24;95451.69;;;10.51;97.82
36598;BME280;22607;49.550;11.940;2023-04-01T10:21:02;95448.44;;;10.56;94.05
36598;BME280;22607;49.550;11.940;2023-04-01T10:27:01;95437.31;;;10.67;96.51
36598;BME280;22607;49.550;11.940;2023-04-01T10:32:24;95443.34;;;10.68;94.59
36598;BME280;22607;49.550;11.940;2023-04-01T10:46:20;95436.31;;;10.61;94.97
36598;BME280;22607;49.550;11.940;2023-04-01T10:51:50;95446.81;;;10.41;93.92
36598;BME280;22607;49.550;11.940;2023-04-01T11:03:08;95433.72;;;10.28;99.10
36598;BME280;22607;49.550;11.940;2023-04-01T11:06:03;95431.31;;;10.06;100.00
36598;BME280;22607;49.550;11.940;2023-04-01T11:09:05;95435.31;;;10.42;100.00
36598;BME280;22607;49.550;11.940;2023-04-01T11:15:06;95440.41;;;10.17;100.00
36598;BME280;22607;49.550;11.940;2023-04-01T11:20:45;95442.41;;;10.21;100.00
36598;BME280;22607;49.550;11.940;2023-04-01T11:26:55;95441.38;;;10.49;100.00
36598;BME280;22607;49.550;11.940;2023-04-01T11:29:33;95442.16;;;10.57;100.00
36598;BME280;22607;49.550;11.940;2023-04-01T11:40:45;95449.38;;;10.82;100.00
36598;BME280;22607;49.550;11.940;2023-04-01T11:43:32;95447.34;;;10.84;100.00
36598;BME280;22607;49.550;11.940;2023-04-01T11:46:16;95449.41;;;10.68;100.00
36598;BME280;22607;49.550;11.940;2023-04-01T11:52:16;95452.28;;;10.46;100.00
36598;BME280;22607;49.550;11.940;2023-04-01T11:55:05;95448.00;;;10.66;100.00
36598;BME280;22607;49.550;11.940;2023-04-01T12:03:16;95457.13;;;10.49;100.00
36598;BME280;22607;49.550;11.940;2023-04-01T12:09:21;95452.91;;;10.35;100.00
36598;BME280;22607;49.550;11.940;2023-04-01T12:29:03;95459.94;;;10.55;100.00
36598;BME280;22607;49.550;11.940;2023-04-01T12:34:53;95462.41;;;9.95;100.00
36598;BME280;22607;49.550;11.940;2023-04-01T12:37:33;95470.91;;;10.11;100.00
36598;BME280;22607;49.550;11.940;2023-04-01T12:40:23;95471.66;;;9.78;100.00
36598;BME280;22607;49.550;11.940;2023-04-01T12:45:54;95452.31;;;9.99;100.00
36598;BME280;22607;49.550;11.940;2023-04-01T13:00:46;95463.00;;;10.18;100.00
36598;BME280;22607;49.550;11.940;2023-04-01T13:06:07;95471.28;;;9.74;100.00
36598;BME280;22607;49.550;11.940;2023-04-01T13:11:38;95477.91;;;9.63;100.00
36598;BME280;22607;49.550;11.940;2023-04-01T13:14:21;95473.28;;;9.58;100.00
36598;BME280;22607;49.550;11.940;2023-04-01T13:17:22;95477.31;;;9.61;100.00
36598;BME280;22607;49.550;11.940;2023-04-01T13:20:02;95472.09;;;9.88;100.00
36598;BME280;22607;49.550;11.940;2023-04-01T13:27:56;95472.25;;;10.27;100.00
36598;BME280;22607;49.550;11.940;2023-04-01T13:30:28;95475.91;;;10.46;100.00
36598;BME280;22607;49.550;11.940;2023-04-01T13:44:06;95477.75;;;10.26;100.00
36598;BME280;22607;49.550;11.940;2023-04-01T13:47:20;95474.88;;;10.41;100.00
36598;BME280;22607;49.550;11.940;2023-04-01T14:00:54;95483.19;;;9.90;100.00
36598;BME280;22607;49.550;11.940;2023-04-01T14:06:12;95487.03;;;9.94;100.00
36598;BME280;22607;49.550;11.940;2023-04-01T14:09:01;95499.09;;;9.82;100.00
36598;BME280;22607;49.550;11.940;2023-04-01T14:19:53;95489.78;;;9.45;100.00
36598;BME280;22607;49.550;11.940;2023-04-01T14:22:42;95488.59;;;9.62;100.00
36598;BME280;22607;49.550;11.940;2023-04-01T14:28:41;95494.66;;;9.62;100.00
36598;BME280;22607;49.550;11.940;2023-04-01T14:34:15;95489.78;;;9.52;100.00
36598;BME280;22607;49.550;11.940;2023-04-01T14:39:54;95494.47;;;9.70;100.00
36598;BME280;22607;49.550;11.940;2023-04-01T14:47:58;95495.47;;;9.69;100.00
36598;BME280;22607;49.550;11.940;2023-04-01T14:50:43;95489.25;;;9.84;100.00
36598;BME280;22607;49.550;11.940;2023-04-01T14:58:19;95493.44;;;9.71;100.00
36598;BME280;22607;49.550;11.940;2023-04-01T15:06:33;95498.31;;;9.81;100.00
36598;BME280;22607;49.550;11.940;2023-04-01T15:09:26;95491.22;;;9.68;100.00
36598;BME280;22607;49.550;11.940;2023-04-01T15:12:42;95499.31;;;9.67;100.00
36598;BME280;22607;49.550;11.940;2023-04-01T15:14:59;95499.50;;;9.65;100.00
36598;BME280;22607;49.550;11.940;2023-04-01T15:20:33;95502.56;;;9.89;100.00
36598;BME280;22607;49.550;11.940;2023-04-01T15:31:15;95509.22;;;9.98;100.00
36598;BME280;22607;49.550;11.940;2023-04-01T15:39:51;95511.63;;;9.93;100.00
36598;BME280;22607;49.550;11.940;2023-04-01T15:45:21;95514.44;;;9.71;100.00
36598;BME280;22607;49.550;11.940;2023-04-01T15:48:01;95520.69;;;9.77;100.00
36598;BME280;22607;49.550;11.940;2023-04-01T15:53:09;95522.50;;;9.83;100.00
36598;BME280;22607;49.550;11.940;2023-04-01T15:55:59;95522.09;;;9.80;100.00
36598;BME280;22607;49.550;11.940;2023-04-01T15:58:52;95532.97;;;9.63;100.00
36598;BME280;22607;49.550;11.940;2023-04-01T16:09:40;95524.91;;;9.71;100.00
36598;BME280;22607;49.550;11.940;2023-04-01T16:15:09;95545.03;;;9.51;100.00
36598;BME280;22607;49.550;11.940;2023-04-01T16:20:55;95547.44;;;9.39;100.00
36598;BME280;22607;49.550;11.940;2023-04-01T16:26:20;95546.28;;;9.55;100.00
36598;BME280;22607;49.550;11.940;2023-04-01T16:31:37;95543.44;;;9.63;100.00
36598;BME280;22607;49.550;11.940;2023-04-01T16:34:18;95549.69;;;9.62;100.00
36598;BME280;22607;49.550;11.940;2023-04-01T16:36:59;95548.66;;;9.50;100.00
36598;BME280;22607;49.550;11.940;2023-04-01T16:39:33;95542.66;;;9.69;100.00
36598;BME280;22607;49.550;11.940;2023-04-01T16:44:58;95559.53;;;9.47;100.00
36598;BME280;22607;49.550;11.940;2023-04-01T16:47:54;95555.47;;;9.37;100.00
36598;BME280;22607;49.550;11.940;2023-04-01T16:53:14;95556.50;;;9.50;100.00
36598;BME280;22607;49.550;11.940;2023-04-01T16:55:49;95561.31;;;9.39;100.00
36598;BME280;22607;49.550;11.940;2023-04-01T16:58:22;95570.78;;;9.40;100.00
36598;BME280;22607;49.550;11.940;2023-04-01T17:00:55;95567.16;;;9.35;100.00
36598;BME280;22607;49.550;11.940;2023-04-01T17:03:38;95568.78;;;9.42;100.00
36598;BME280;22607;49.550;11.940;2023-04-01T17:11:16;95578.00;;;9.25;100.00
36598;BME280;22607;49.550;11.940;2023-04-01T17:14:18;95574.72;;;9.16;100.00
36598;BME280;22607;49.550;11.940;2023-04-01T17:27:59;95599.53;;;9.20;100.00
36598;BME280;22607;49.550;11.940;2023-04-01T17:33:30;95605.72;;;9.12;100.00
36598;BME280;22607;49.550;11.940;2023-04-01T17:44:44;95617.03;;;8.84;100.00
36598;BME280;22607;49.550;11.940;2023-04-01T17:52:38;95619.78;;;9.04;100.00
36598;BME280;22607;49.550;11.940;2023-04-01T17:58:05;95629.75;;;8.87;100.00
36598;BME280;22607;49.550;11.940;2023-04-01T18:01:07;95623.84;;;9.07;100.00
36598;BME280;22607;49.550;11.940;2023-04-01T18:06:20;95640.78;;;9.11;100.00
36598;BME280;22607;49.550;11.940;2023-04-01T18:12:14;95642.41;;;9.12;100.00
36598;BME280;22607;49.550;11.940;2023-04-01T18:21:14;95653.03;;;8.75;100.00
36598;BME280;22607;49.550;11.940;2023-04-01T18:23:51;95664.03;;;8.92;100.00
36598;BME280;22607;49.550;11.940;2023-04-01T18:26:31;95662.63;;;8.68;100.00
36598;BME280;22607;49.550;11.940;2023-04-01T18:32:11;95669.56;;;8.54;100.00
36598;BME280;22607;49.550;11.940;2023-04-01T18:35:00;95664.69;;;8.73;100.00
36598;BME280;22607;49.550;11.940;2023-04-01T18:37:37;95672.00;;;8.84;100.00
36598;BME280;22607;49.550;11.940;2023-04-01T18:40:36;95675.69;;;8.90;100.00
36598;BME280;22607;49.550;11.940;2023-04-01T18:43:19;95680.16;;;8.68;100.00
36598;BME280;22607;49.550;11.940;2023-04-01T18:46:00;95680.09;;;8.83;100.00
36598;BME280;22607;49.550;11.940;2023-04-01T18:53:56;95685.88;;;8.78;100.00
36598;BME280;22607;49.550;11.940;2023-04-01T18:56:35;95688.59;;;8.91;100.00
36598;BME280;22607;49.550;11.940;2023-04-01T18:59:25;95697.97;;;8.79;100.00
36598;BME280;22607;49.550;11.940;2023-04-01T19:04:38;95694.03;;;8.68;100.00
36598;BME280;22607;49.550;11.940;2023-04-01T19:10:00;95713.25;;;8.53;100.00
36598;BME280;22607;49.550;11.940;2023-04-01T19:12:51;95718.16;;;8.63;100.00
36598;BME280;22607;49.550;11.940;2023-04-01T19:21:00;95715.69;;;8.55;100.00
36598;BME280;22607;49.550;11.940;2023-04-01T19:37:37;95721.84;;;8.32;100.00
36598;BME280;22607;49.550;11.940;2023-04-01T19:43:27;95726.81;;;8.42;100.00
36598;BME280;22607;49.550;11.940;2023-04-01T19:46:04;95732.09;;;8.49;100.00
36598;BME280;22607;49.550;11.940;2023-04-01T19:48:44;95730.91;;;8.51;100.00
36598;BME280;22607;49.550;11.940;2023-04-01T19:51:31;95729.88;;;8.31;100.00
36598;BME280;22607;49.550;11.940;2023-04-01T19:54:10;95738.94;;;8.50;100.00
36598;BME280;22607;49.550;11.940;2023-04-01T20:07:12;95743.50;;;8.41;100.00
36598;BME280;22607;49.550;11.940;2023-04-01T20:09:58;95753.63;;;8.29;100.00
36598;BME280;22607;49.550;11.940;2023-04-01T20:15:39;95759.19;;;8.41;100.00
36598;BME280;22607;49.550;11.940;2023-04-01T20:18:16;95756.44;;;8.49;100.00
36598;BME280;22607;49.550;11.940;2023-04-01T20:23:44;95763.22;;;8.59;100.00
36598;BME280;22607;49.550;11.940;2023-04-01T20:26:20;95765.66;;;8.60;100.00
36598;BME280;22607;49.550;11.940;2023-04-01T20:40:26;95769.28;;;8.59;100.00
36598;BME280;22607;49.550;11.940;2023-04-01T20:46:22;95771.19;;;8.35;100.00
36598;BME280;22607;49.550;11.940;2023-04-01T20:51:54;95776.50;;;8.57;100.00
36598;BME280;22607;49.550;11.940;2023-04-01T20:57:21;95785.09;;;8.36;100.00
36598;BME280;22607;49.550;11.940;2023-04-01T21:00:19;95784.53;;;8.40;100.00
36598;BME280;22607;49.550;11.940;2023-04-01T21:02:54;95783.84;;;8.32;100.00
36598;BME280;22607;49.550;11.940;2023-04-01T21:05:39;95785.97;;;8.43;100.00
36598;BME280;22607;49.550;11.940;2023-04-01T21:11:05;95777.78;;;8.31;100.00
36598;BME280;22607;49.550;11.940;2023-04-01T21:13:58;95790.34;;;8.36;100.00